Time;durP1;ratioP1;P1;durP2;ratioP2;P2;SDS_P1;SDS_P2;PMS_P1;PMS_P2;Temp;Humidity;BMP_temperature;BMP_pressure;BME280_temperature;BME280_humidity;BME280_pressure;Samples;Min_cycle;Max_cycle;Signal;HPM_P1;HPM_P2
2023/04/13 04:48:02;;;;;;;0.70;0.70;;;;;;;;;;6216195;23;20184;-75
2023/04/13 04:50:29;;;;;;;0.60;0.60;;;;;;;;;;6216655;23;20169;-77
2023/04/13 04:52:57;;;;;;;1.95;0.90;;;;;;;;;;6216857;23;20183;-76
2023/04/13 04:55:24;;;;;;;1.77;0.77;;;;;;;;;;6216555;23;20247;-71
2023/04/13 04:57:54;;;;;;;3.22;1.00;;;;;;;;;;6216776;23;20510;-77
2023/04/13 05:00:21;;;;;;;0.73;0.73;;;;;;;;;;6216462;23;20533;-74
2023/04/13 05:02:49;;;;;;;1.08;0.60;;;;;;;;;;6216413;23;20211;-75
2023/04/13 05:05:18;;;;;;;0.65;0.65;;;;;;;;;;6215914;23;20565;-74
2023/04/13 05:07:45;;;;;;;1.17;0.88;;;;;;;;;;6216397;23;20184;-76
2023/04/13 05:10:12;;;;;;;1.35;0.82;;;;;;;;;;6216525;23;20177;-76
2023/04/13 05:12:39;;;;;;;0.82;0.60;;;;;;;;;;6216550;23;20541;-76
2023/04/13 05:15:07;;;;;;;0.73;0.68;;;;;;;;;;6215973;23;20196;-73
2023/04/13 05:17:35;;;;;;;0.50;0.50;;;;;;;;;;6216390;23;20223;-76
2023/04/13 05:20:05;;;;;;;0.60;0.60;;;;;;;;;;6216167;23;20176;-76
2023/04/13 05:22:33;;;;;;;0.50;0.50;;;;;;;;;;6216086;23;20708;-74
2023/04/13 05:25:01;;;;;;;1.15;0.80;;;;;;;;;;6216466;23;20199;-75
2023/04/13 05:27:28;;;;;;;0.80;0.80;;;;;;;;;;6216381;23;20173;-75
2023/04/13 05:29:56;;;;;;;0.70;0.70;;;;;;;;;;6216052;23;20664;-74
2023/04/13 05:32:23;;;;;;;0.63;0.63;;;;;;;;;;6216306;23;20169;-73
2023/04/13 05:34:50;;;;;;;0.63;0.60;;;;;;;;;;6216021;23;20196;-74
2023/04/13 05:37:17;;;;;;;0.70;0.70;;;;;;;;;;6216300;23;20204;-73
2023/04/13 05:39:46;;;;;;;0.60;0.60;;;;;;;;;;6216262;23;20247;-74
2023/04/13 05:42:13;;;;;;;0.60;0.60;;;;;;;;;;6215827;23;20713;-74
2023/04/13 05:44:40;;;;;;;0.50;0.50;;;;;;;;;;6217722;23;20247;-73
2023/04/13 05:47:07;;;;;;;0.70;0.70;;;;;;;;;;6219706;23;20216;-73
2023/04/13 05:49:34;;;;;;;0.70;0.70;;;;;;;;;;6227517;23;20192;-73
2023/04/13 05:52:02;;;;;;;4.43;1.10;;;;;;;;;;6227072;23;20248;-73
2023/04/13 05:54:29;;;;;;;1.60;0.85;;;;;;;;;;6216113;23;20176;-73
2023/04/13 05:56:58;;;;;;;1.42;0.70;;;;;;;;;;6216216;23;20172;-73
2023/04/13 05:59:26;;;;;;;0.75;0.65;;;;;;;;;;6216132;23;20207;-73
2023/04/13 06:01:53;;;;;;;0.70;0.60;;;;;;;;;;6215549;23;20197;-74
2023/04/13 06:04:21;;;;;;;0.90;0.65;;;;;;;;;;6216141;23;20176;-74
2023/04/13 06:06:48;;;;;;;1.80;0.60;;;;;;;;;;6216070;23;20200;-74
2023/04/13 06:09:15;;;;;;;0.50;0.50;;;;;;;;;;6216011;23;20180;-74
2023/04/13 06:11:43;;;;;;;0.82;0.70;;;;;;;;;;6217645;23;20180;-74
2023/04/13 06:14:12;;;;;;;0.70;0.70;;;;;;;;;;6220246;23;20183;-74
2023/04/13 06:16:39;;;;;;;0.63;0.63;;;;;;;;;;6221105;23;20259;-74
2023/04/13 06:19:06;;;;;;;0.93;0.60;;;;;;;;;;6220494;23;20177;-74
2023/04/13 06:21:33;;;;;;;1.25;0.60;;;;;;;;;;6218660;23;20327;-74
2023/04/13 06:24:01;;;;;;;1.75;0.57;;;;;;;;;;6222776;23;20173;-74
2023/04/13 06:26:29;;;;;;;2.13;1.10;;;;;;;;;;6223184;23;20196;-74
2023/04/13 06:28:56;;;;;;;0.70;0.70;;;;;;;;;;6221801;23;20200;-73
2023/04/13 06:31:27;;;;;;;0.47;0.47;;;;;;;;;;6221754;23;20176;-73
2023/04/13 06:33:55;;;;;;;0.70;0.70;;;;;;;;;;6221612;23;20230;-73
2023/04/13 06:36:22;;;;;;;2.20;0.70;;;;;;;;;;6222518;23;20271;-73
2023/04/13 06:38:50;;;;;;;1.67;1.05;;;;;;;;;;6221932;23;20180;-73
2023/04/13 06:41:18;;;;;;;1.52;0.70;;;;;;;;;;6218830;23;20212;-73
2023/04/13 06:43:45;;;;;;;2.45;0.85;;;;;;;;;;6218932;23;20208;-73
2023/04/13 06:46:13;;;;;;;1.77;0.63;;;;;;;;;;6218580;23;20271;-73
2023/04/13 06:48:42;;;;;;;1.05;0.75;;;;;;;;;;6219806;23;20184;-73
2023/04/13 06:51:10;;;;;;;2.03;0.80;;;;;;;;;;6220606;23;20172;-73
2023/04/13 06:53:37;;;;;;;4.00;1.00;;;;;;;;;;6217829;23;20208;-74
2023/04/13 06:56:05;;;;;;;0.80;0.80;;;;;;;;;;6217283;23;20208;-73
2023/04/13 06:58:32;;;;;;;2.78;1.10;;;;;;;;;;6219205;23;20192;-74
2023/04/13 07:01:00;;;;;;;2.42;1.30;;;;;;;;;;6217181;23;20173;-74
2023/04/13 07:03:27;;;;;;;3.03;1.27;;;;;;;;;;6217262;23;20180;-74
2023/04/13 07:05:56;;;;;;;0.93;0.77;;;;;;;;;;6217510;23;20218;-74
2023/04/13 07:08:23;;;;;;;0.77;0.63;;;;;;;;;;6217122;23;20223;-75
2023/04/13 07:10:53;;;;;;;1.20;0.90;;;;;;;;;;6217568;23;20183;-74
2023/04/13 07:13:20;;;;;;;3.67;0.88;;;;;;;;;;6217614;23;20157;-74
2023/04/13 07:15:47;;;;;;;2.17;0.98;;;;;;;;;;6217442;23;20200;-74
2023/04/13 07:18:17;;;;;;;2.72;0.80;;;;;;;;;;6217440;23;20264;-73
2023/04/13 07:20:46;;;;;;;1.45;0.80;;;;;;;;;;6217612;23;20177;-76
2023/04/13 07:23:14;;;;;;;1.88;0.77;;;;;;;;;;6217414;23;20189;-75
2023/04/13 07:25:41;;;;;;;1.33;0.77;;;;;;;;;;6216943;23;20760;-75
2023/04/13 07:28:11;;;;;;;0.75;0.60;;;;;;;;;;6217116;23;20211;-74
2023/04/13 07:30:43;;;;;;;0.95;0.50;;;;;;;;;;6217705;23;20187;-74
2023/04/13 07:33:10;;;;;;;3.17;0.80;;;;;;;;;;6217238;23;20184;-74
2023/04/13 07:35:38;;;;;;;1.90;0.75;;;;;;;;;;6217233;23;20258;-72
2023/04/13 07:38:05;;;;;;;0.68;0.68;;;;;;;;;;6217241;23;20177;-72
2023/04/13 07:40:34;;;;;;;2.08;0.93;;;;;;;;;;6216709;23;20163;-72
2023/04/13 07:43:02;;;;;;;3.17;0.60;;;;;;;;;;6217909;23;20192;-74
2023/04/13 07:45:31;;;;;;;1.95;0.80;;;;;;;;;;6218818;23;20197;-74
2023/04/13 07:47:58;;;;;;;2.08;1.00;;;;;;;;;;6217031;23;20181;-73
2023/04/13 07:50:26;;;;;;;1.83;0.77;;;;;;;;;;6216778;23;20181;-72
2023/04/13 07:52:55;;;;;;;1.23;0.98;;;;;;;;;;6216705;23;20656;-73
2023/04/13 07:55:22;;;;;;;0.98;0.80;;;;;;;;;;6216656;23;20251;-73
2023/04/13 07:57:51;;;;;;;1.55;0.80;;;;;;;;;;6216388;23;20249;-73
2023/04/13 08:00:21;;;;;;;2.45;1.10;;;;;;;;;;6217000;23;20173;-73
2023/04/13 08:02:48;;;;;;;2.75;1.10;;;;;;;;;;6216865;23;20532;-73
2023/04/13 08:05:15;;;;;;;2.13;0.80;;;;;;;;;;6216922;23;20201;-73
2023/04/13 08:07:45;;;;;;;2.97;1.13;;;;;;;;;;6216989;23;20177;-74
2023/04/13 08:10:12;;;;;;;2.70;1.02;;;;;;;;;;6216910;23;20231;-73
2023/04/13 08:12:39;;;;;;;3.40;1.00;;;;;;;;;;6217104;23;20169;-74
2023/04/13 08:15:08;;;;;;;2.67;0.80;;;;;;;;;;6216923;23;20199;-73
2023/04/13 08:17:35;;;;;;;1.38;1.02;;;;;;;;;;6216473;23;20630;-73
2023/04/13 08:20:06;;;;;;;2.15;1.08;;;;;;;;;;6216916;23;20177;-72
2023/04/13 08:22:33;;;;;;;1.17;0.75;;;;;;;;;;6216827;23;20181;-72
2023/04/13 08:25:00;;;;;;;2.08;1.23;;;;;;;;;;6216715;23;20193;-72
2023/04/13 08:27:27;;;;;;;2.95;1.00;;;;;;;;;;6216683;23;20196;-74
2023/04/13 08:29:59;;;;;;;5.07;1.35;;;;;;;;;;6216682;23;20185;-74
2023/04/13 08:32:28;;;;;;;2.05;0.82;;;;;;;;;;6216839;23;20157;-75
2023/04/13 08:34:55;;;;;;;2.53;0.90;;;;;;;;;;6216562;23;20197;-74
2023/04/13 08:37:23;;;;;;;2.50;1.20;;;;;;;;;;6217349;23;20184;-74
2023/04/13 08:39:55;;;;;;;2.83;1.20;;;;;;;;;;6216740;23;20282;-74
2023/04/13 08:42:22;;;;;;;2.20;1.00;;;;;;;;;;6216441;23;20208;-74
2023/04/13 08:44:51;;;;;;;3.33;1.20;;;;;;;;;;6216533;23;20224;-74
2023/04/13 08:47:18;;;;;;;2.53;1.00;;;;;;;;;;6216329;23;20188;-74
2023/04/13 08:49:48;;;;;;;6.38;1.45;;;;;;;;;;6217153;23;20177;-74
2023/04/13 08:52:15;;;;;;;2.97;1.27;;;;;;;;;;6216814;23;20195;-75
2023/04/13 08:54:43;;;;;;;3.08;1.10;;;;;;;;;;6216314;23;20197;-74
2023/04/13 08:57:11;;;;;;;6.43;1.48;;;;;;;;;;6216425;23;20199;-75
2023/04/13 08:59:40;;;;;;;1.95;1.27;;;;;;;;;;6216409;23;20211;-75
2023/04/13 09:02:08;;;;;;;1.45;1.10;;;;;;;;;;6216826;23;20259;-75
2023/04/13 09:04:37;;;;;;;3.72;0.80;;;;;;;;;;6216397;23;20201;-74
2023/04/13 09:07:07;;;;;;;1.33;1.08;;;;;;;;;;6216665;23;20173;-74
2023/04/13 09:09:35;;;;;;;3.92;1.67;;;;;;;;;;6216413;23;20177;-74
2023/04/13 09:12:02;;;;;;;4.88;1.33;;;;;;;;;;6216304;23;20175;-73
2023/04/13 09:14:30;;;;;;;4.18;1.27;;;;;;;;;;6215930;23;20634;-73
2023/04/13 09:16:57;;;;;;;2.50;1.40;;;;;;;;;;6216045;23;20543;-74
2023/04/13 09:19:31;;;;;;;2.75;1.13;;;;;;;;;;6216319;23;20180;-74
2023/04/13 09:21:58;;;;;;;1.98;1.20;;;;;;;;;;6216286;23;20192;-77
2023/04/13 09:24:27;;;;;;;2.20;1.10;;;;;;;;;;6216404;23;20165;-76
2023/04/13 09:26:54;;;;;;;1.95;1.30;;;;;;;;;;6216398;23;20183;-77
2023/04/13 09:29:22;;;;;;;4.88;1.58;;;;;;;;;;6216429;23;20158;-76
2023/04/13 09:31:50;;;;;;;7.03;1.77;;;;;;;;;;6216404;23;20176;-76
2023/04/13 09:34:27;;;;;;;2.47;1.25;;;;;;;;;;6216392;23;20176;-76
2023/04/13 09:36:54;;;;;;;2.97;1.20;;;;;;;;;;6216433;23;20156;-77
2023/04/13 09:39:26;;;;;;;1.25;1.02;;;;;;;;;;6216554;23;20176;-76
2023/04/13 09:41:54;;;;;;;1.88;0.77;;;;;;;;;;6216983;23;20246;-76
2023/04/13 09:44:23;;;;;;;3.22;1.50;;;;;;;;;;6216838;23;20259;-77
2023/04/13 09:46:57;;;;;;;2.55;1.20;;;;;;;;;;6217013;23;20242;-77
2023/04/13 09:49:25;;;;;;;2.15;1.10;;;;;;;;;;6218170;23;20470;-77
2023/04/13 09:51:52;;;;;;;1.85;1.10;;;;;;;;;;6217340;23;20184;-77
2023/04/13 09:54:21;;;;;;;2.33;1.50;;;;;;;;;;6215910;23;20181;-76
2023/04/13 09:56:51;;;;;;;2.53;1.00;;;;;;;;;;6216312;23;20207;-75
2023/04/13 09:59:20;;;;;;;5.65;1.25;;;;;;;;;;6216238;23;20244;-76
2023/04/13 10:01:48;;;;;;;2.20;1.00;;;;;;;;;;6215916;23;20553;-74
2023/04/13 10:04:16;;;;;;;2.88;1.13;;;;;;;;;;6215626;23;20628;-75
2023/04/13 10:06:43;;;;;;;2.42;1.55;;;;;;;;;;6216075;23;20587;-75
2023/04/13 10:09:10;;;;;;;2.40;1.00;;;;;;;;;;6216402;23;20260;-75
2023/04/13 10:11:38;;;;;;;3.53;1.10;;;;;;;;;;6216432;23;20172;-75
2023/04/13 10:14:08;;;;;;;2.53;1.40;;;;;;;;;;6217388;23;20207;-74
2023/04/13 10:16:43;;;;;;;3.80;1.30;;;;;;;;;;6218523;23;20200;-75
2023/04/13 10:19:11;;;;;;;3.20;1.55;;;;;;;;;;6221666;23;20160;-74
2023/04/13 10:21:39;;;;;;;3.17;1.10;;;;;;;;;;6216978;23;20637;-75
2023/04/13 10:24:07;;;;;;;7.15;1.38;;;;;;;;;;6216268;23;20228;-75
2023/04/13 10:26:34;;;;;;;4.10;1.50;;;;;;;;;;6216324;23;20200;-75
2023/04/13 10:29:02;;;;;;;3.45;1.65;;;;;;;;;;6216771;23;20215;-75
2023/04/13 10:31:36;;;;;;;2.42;1.20;;;;;;;;;;6216253;23;20192;-75
2023/04/13 10:34:05;;;;;;;3.15;1.45;;;;;;;;;;6216794;23;20168;-75
2023/04/13 10:36:38;;;;;;;3.88;1.50;;;;;;;;;;6216339;23;20193;-75
2023/04/13 10:39:07;;;;;;;2.90;1.10;;;;;;;;;;6216597;23;20240;-74
2023/04/13 10:41:34;;;;;;;4.80;1.45;;;;;;;;;;6216154;23;20183;-74
2023/04/13 10:44:02;;;;;;;3.58;1.42;;;;;;;;;;6215910;23;20197;-73
2023/04/13 10:46:32;;;;;;;3.10;1.42;;;;;;;;;;6216284;23;20527;-74
2023/04/13 10:49:00;;;;;;;1.65;1.00;;;;;;;;;;6215533;23;20188;-74
2023/04/13 10:51:38;;;;;;;2.95;1.48;;;;;;;;;;6216376;23;20196;-74
2023/04/13 10:54:05;;;;;;;2.75;1.10;;;;;;;;;;6215976;23;20189;-73
2023/04/13 10:56:32;;;;;;;1.05;0.93;;;;;;;;;;6215885;23;20247;-74
2023/04/13 10:58:59;;;;;;;1.27;1.10;;;;;;;;;;6216037;23;20173;-73
2023/04/13 11:01:29;;;;;;;7.00;1.38;;;;;;;;;;6215979;23;20173;-73
2023/04/13 11:03:56;;;;;;;2.63;1.00;;;;;;;;;;6215928;23;20196;-73
2023/04/13 11:06:23;;;;;;;1.10;1.02;;;;;;;;;;6216529;23;20275;-72
2023/04/13 11:08:59;;;;;;;3.05;1.02;;;;;;;;;;6218139;23;20482;-72
2023/04/13 11:11:26;;;;;;;2.35;1.20;;;;;;;;;;6217750;23;20168;-74
2023/04/13 11:13:53;;;;;;;3.72;1.08;;;;;;;;;;6218413;23;20172;-73
2023/04/13 11:16:20;;;;;;;1.50;1.10;;;;;;;;;;6219603;23;20200;-74
2023/04/13 11:18:47;;;;;;;1.95;1.25;;;;;;;;;;6217610;23;20509;-74
2023/04/13 11:21:15;;;;;;;2.60;0.95;;;;;;;;;;6217818;23;20177;-74
2023/04/13 11:23:42;;;;;;;2.13;0.88;;;;;;;;;;6217372;23;20669;-74
2023/04/13 11:26:13;;;;;;;2.33;1.30;;;;;;;;;;6217598;23;20196;-74
2023/04/13 11:28:41;;;;;;;4.07;1.17;;;;;;;;;;6217756;23;20168;-74
2023/04/13 11:31:10;;;;;;;1.63;1.20;;;;;;;;;;6217482;23;20173;-74
2023/04/13 11:33:37;;;;;;;4.80;1.48;;;;;;;;;;6217397;23;20626;-74
2023/04/13 11:36:04;;;;;;;4.25;1.20;;;;;;;;;;6217525;23;20247;-74
2023/04/13 11:38:32;;;;;;;2.17;1.00;;;;;;;;;;6217592;23;20157;-74
2023/04/13 11:41:02;;;;;;;5.38;1.45;;;;;;;;;;6217408;23;20211;-74
2023/04/13 11:43:31;;;;;;;1.48;0.90;;;;;;;;;;6217458;23;20203;-75
2023/04/13 11:45:58;;;;;;;2.72;1.27;;;;;;;;;;6218845;23;20496;-73
2023/04/13 11:48:25;;;;;;;1.40;0.93;;;;;;;;;;6216947;23;20239;-74
2023/04/13 11:50:52;;;;;;;3.90;1.30;;;;;;;;;;6217340;23;20157;-74
2023/04/13 11:53:19;;;;;;;1.55;0.90;;;;;;;;;;6217499;23;20154;-74
2023/04/13 11:55:47;;;;;;;1.38;1.10;;;;;;;;;;6217040;23;20192;-73
2023/04/13 11:58:17;;;;;;;3.85;1.10;;;;;;;;;;6217156;23;20161;-74
2023/04/13 12:00:46;;;;;;;1.08;0.80;;;;;;;;;;6217594;23;20526;-73
2023/04/13 12:03:13;;;;;;;0.90;0.90;;;;;;;;;;6217210;23;20267;-74
2023/04/13 12:05:41;;;;;;;1.17;0.80;;;;;;;;;;6217032;23;20258;-73
2023/04/13 12:08:08;;;;;;;3.05;1.00;;;;;;;;;;6216953;23;20180;-74
2023/04/13 12:10:36;;;;;;;3.28;0.90;;;;;;;;;;6216700;23;20173;-73
2023/04/13 12:13:07;;;;;;;1.92;0.90;;;;;;;;;;6217021;23;20161;-73
2023/04/13 12:15:36;;;;;;;3.30;0.90;;;;;;;;;;6217047;23;20529;-76
2023/04/13 12:18:05;;;;;;;1.60;0.90;;;;;;;;;;6216636;23;20205;-75
2023/04/13 12:20:36;;;;;;;1.50;0.70;;;;;;;;;;6216633;23;20688;-74
2023/04/13 12:23:03;;;;;;;1.70;0.82;;;;;;;;;;6216868;23;20196;-76
2023/04/13 12:25:31;;;;;;;2.47;1.05;;;;;;;;;;6216787;23;20214;-75
2023/04/13 12:27:59;;;;;;;1.35;0.70;;;;;;;;;;6217003;23;20157;-74
2023/04/13 12:30:26;;;;;;;1.55;0.93;;;;;;;;;;6216779;23;20180;-74
2023/04/13 12:32:54;;;;;;;0.73;0.73;;;;;;;;;;6216759;23;20204;-74
2023/04/13 12:35:22;;;;;;;2.13;1.05;;;;;;;;;;6216733;23;20275;-73
2023/04/13 12:37:51;;;;;;;0.65;0.57;;;;;;;;;;6216618;23;20240;-74
2023/04/13 12:40:19;;;;;;;2.47;0.93;;;;;;;;;;6216807;23;20256;-75
2023/04/13 12:42:46;;;;;;;2.65;1.00;;;;;;;;;;6216058;23;20637;-73
2023/04/13 12:45:13;;;;;;;1.17;0.77;;;;;;;;;;6216510;23;20193;-73
2023/04/13 12:47:40;;;;;;;2.75;1.05;;;;;;;;;;6216418;23;20191;-76
2023/04/13 12:50:09;;;;;;;0.85;0.65;;;;;;;;;;6216187;23;20184;-76
2023/04/13 12:52:39;;;;;;;2.92;1.00;;;;;;;;;;6216549;23;20177;-76
2023/04/13 12:55:07;;;;;;;0.68;0.68;;;;;;;;;;6216412;23;20231;-75
2023/04/13 12:57:34;;;;;;;0.50;0.50;;;;;;;;;;6216471;23;20180;-74
2023/04/13 13:00:02;;;;;;;1.13;0.75;;;;;;;;;;6217402;23;20227;-74
2023/04/13 13:02:30;;;;;;;1.98;0.80;;;;;;;;;;6216344;23;20184;-73
2023/04/13 13:04:57;;;;;;;1.27;0.60;;;;;;;;;;6216029;23;20576;-73
2023/04/13 13:07:25;;;;;;;1.60;0.60;;;;;;;;;;6215982;23;20175;-73
2023/04/13 13:09:53;;;;;;;0.60;0.60;;;;;;;;;;6216421;23;20176;-75
2023/04/13 13:12:20;;;;;;;1.42;0.60;;;;;;;;;;6216416;23;20195;-74
2023/04/13 13:14:48;;;;;;;1.30;0.90;;;;;;;;;;6216310;23;20193;-75
2023/04/13 13:17:16;;;;;;;0.93;0.80;;;;;;;;;;6216331;23;20180;-76
2023/04/13 13:19:43;;;;;;;1.15;0.80;;;;;;;;;;6214439;23;20177;-75
2023/04/13 13:22:10;;;;;;;1.75;0.95;;;;;;;;;;6216344;23;20177;-75
2023/04/13 13:24:37;;;;;;;1.75;0.77;;;;;;;;;;6216139;23;20201;-75
2023/04/13 13:27:06;;;;;;;2.33;0.98;;;;;;;;;;6216314;23;20177;-75
2023/04/13 13:29:35;;;;;;;0.88;0.63;;;;;;;;;;6216517;23;20179;-75
2023/04/13 13:32:03;;;;;;;1.75;0.68;;;;;;;;;;6216442;23;20173;-75
2023/04/13 13:34:30;;;;;;;1.70;0.50;;;;;;;;;;6216199;23;20176;-75
2023/04/13 13:36:57;;;;;;;0.90;0.90;;;;;;;;;;6217377;23;20235;-75
2023/04/13 13:39:24;;;;;;;0.70;0.60;;;;;;;;;;6216194;23;20160;-75
2023/04/13 13:41:51;;;;;;;0.70;0.70;;;;;;;;;;6216392;23;20180;-73
2023/04/13 13:44:20;;;;;;;0.75;0.75;;;;;;;;;;6216598;23;20569;-73
2023/04/13 13:46:47;;;;;;;0.70;0.70;;;;;;;;;;6216344;23;20185;-73
2023/04/13 13:49:14;;;;;;;0.60;0.60;;;;;;;;;;6216500;23;20165;-73
2023/04/13 13:51:41;;;;;;;1.13;0.60;;;;;;;;;;6216310;23;20208;-72
2023/04/13 13:54:08;;;;;;;1.65;0.68;;;;;;;;;;6216462;23;20172;-74
2023/04/13 13:56:35;;;;;;;0.65;0.65;;;;;;;;;;6216154;23;20197;-74
2023/04/13 13:59:03;;;;;;;0.57;0.57;;;;;;;;;;6216221;23;20176;-75
2023/04/13 14:01:31;;;;;;;0.60;0.60;;;;;;;;;;6216210;23;20173;-73
2023/04/13 14:03:58;;;;;;;0.40;0.40;;;;;;;;;;6216127;23;20193;-74
2023/04/13 14:06:26;;;;;;;0.47;0.47;;;;;;;;;;6216144;23;20201;-76
2023/04/13 14:08:54;;;;;;;0.47;0.47;;;;;;;;;;6216131;23;20183;-75
2023/04/13 14:11:21;;;;;;;0.60;0.60;;;;;;;;;;6216209;23;20179;-73
2023/04/13 14:13:49;;;;;;;0.50;0.50;;;;;;;;;;6216803;23;20177;-76
2023/04/13 14:16:16;;;;;;;0.60;0.60;;;;;;;;;;6216400;23;20275;-74
2023/04/13 14:18:44;;;;;;;0.63;0.63;;;;;;;;;;6216096;23;20176;-74
2023/04/13 14:21:11;;;;;;;0.60;0.60;;;;;;;;;;6216134;23;20180;-75
2023/04/13 14:23:39;;;;;;;0.73;0.70;;;;;;;;;;6215868;23;20204;-75
2023/04/13 14:26:06;;;;;;;0.95;0.68;;;;;;;;;;6215859;23;20231;-76
2023/04/13 14:28:35;;;;;;;0.70;0.70;;;;;;;;;;6215760;23;20177;-76
2023/04/13 14:31:03;;;;;;;0.70;0.70;;;;;;;;;;6215858;23;20556;-75
2023/04/13 14:33:30;;;;;;;0.70;0.70;;;;;;;;;;6216190;23;20207;-75
2023/04/13 14:35:58;;;;;;;0.60;0.60;;;;;;;;;;6217813;23;20197;-74
2023/04/13 14:38:25;;;;;;;0.80;0.80;;;;;;;;;;6223678;23;20161;-74
2023/04/13 14:40:52;;;;;;;1.13;1.13;;;;;;;;;;6233297;23;20173;-74
2023/04/13 14:43:19;;;;;;;0.80;0.80;;;;;;;;;;6217885;23;20173;-75
2023/04/13 14:45:46;;;;;;;1.60;1.50;;;;;;;;;;6217670;23;20673;-75
2023/04/13 14:48:14;;;;;;;1.70;1.60;;;;;;;;;;6217511;23;20235;-75
2023/04/13 14:50:41;;;;;;;1.98;1.88;;;;;;;;;;6217938;23;20173;-75
2023/04/13 14:53:09;;;;;;;2.30;1.88;;;;;;;;;;6217795;23;20231;-75
2023/04/13 14:55:36;;;;;;;2.00;1.90;;;;;;;;;;6217676;23;20192;-74
2023/04/13 14:58:04;;;;;;;1.30;1.30;;;;;;;;;;6217781;23;20173;-75
2023/04/13 15:00:40;;;;;;;1.50;1.40;;;;;;;;;;6217672;23;20181;-75
2023/04/13 15:03:07;;;;;;;1.27;1.27;;;;;;;;;;6217993;23;20168;-77
2023/04/13 15:05:38;;;;;;;1.15;0.95;;;;;;;;;;6217420;23;20204;-75
2023/04/13 15:08:06;;;;;;;0.88;0.88;;;;;;;;;;6217794;23;20172;-77
2023/04/13 15:10:34;;;;;;;0.85;0.85;;;;;;;;;;6218835;23;20256;-77
2023/04/13 15:13:02;;;;;;;0.80;0.80;;;;;;;;;;6222670;23;20176;-78
2023/04/13 15:15:31;;;;;;;1.02;0.75;;;;;;;;;;6217217;23;20607;-77
2023/04/13 15:17:58;;;;;;;2.38;0.80;;;;;;;;;;6217743;23;20177;-76
2023/04/13 15:20:25;;;;;;;0.63;0.63;;;;;;;;;;6218170;23;20165;-76
2023/04/13 15:22:52;;;;;;;0.60;0.60;;;;;;;;;;6217770;23;20183;-76
2023/04/13 15:25:19;;;;;;;0.70;0.70;;;;;;;;;;6217431;23;20205;-67
2023/04/13 15:27:50;;;;;;;1.58;0.90;;;;;;;;;;6217226;23;20530;-76
2023/04/13 15:30:24;;;;;;;0.93;0.93;;;;;;;;;;6217554;23;20161;-75
2023/04/13 15:32:51;;;;;;;0.82;0.82;;;;;;;;;;6217848;23;20161;-74
2023/04/13 15:35:18;;;;;;;0.57;0.57;;;;;;;;;;6217411;23;20192;-76
2023/04/13 15:37:45;;;;;;;0.90;0.90;;;;;;;;;;6217471;23;20173;-76
2023/04/13 15:40:13;;;;;;;0.75;0.75;;;;;;;;;;6217438;23;20239;-76
2023/04/13 15:42:40;;;;;;;0.88;0.88;;;;;;;;;;6216876;23;20638;-75
2023/04/13 15:45:09;;;;;;;0.90;0.90;;;;;;;;;;6217076;23;20206;-75
2023/04/13 15:47:36;;;;;;;0.80;0.80;;;;;;;;;;6216972;23;20220;-74
2023/04/13 15:50:04;;;;;;;0.93;0.90;;;;;;;;;;6217161;23;20173;-75
2023/04/13 15:52:31;;;;;;;1.92;1.25;;;;;;;;;;6216492;23;20200;-74
2023/04/13 15:54:58;;;;;;;1.25;1.17;;;;;;;;;;6217088;23;20196;-74
2023/04/13 15:57:25;;;;;;;1.08;1.08;;;;;;;;;;6217122;23;20180;-76
2023/04/13 15:59:52;;;;;;;1.58;1.30;;;;;;;;;;6216846;23;20557;-76
2023/04/13 16:02:20;;;;;;;4.20;1.98;;;;;;;;;;6216699;23;20204;-75
2023/04/13 16:04:47;;;;;;;1.73;1.63;;;;;;;;;;6217171;23;20278;-76
2023/04/13 16:07:15;;;;;;;2.58;1.52;;;;;;;;;;6217301;23;20172;-75
2023/04/13 16:09:43;;;;;;;2.03;1.90;;;;;;;;;;6217404;23;20180;-75
2023/04/13 16:12:10;;;;;;;1.40;1.23;;;;;;;;;;6217059;23;20181;-76
2023/04/13 16:14:40;;;;;;;1.83;1.73;;;;;;;;;;6217103;23;20529;-74
2023/04/13 16:17:08;;;;;;;1.30;1.20;;;;;;;;;;6217344;23;20185;-74
2023/04/13 16:19:36;;;;;;;1.10;1.10;;;;;;;;;;6216918;23;20705;-74
2023/04/13 16:22:05;;;;;;;1.65;1.55;;;;;;;;;;6217607;23;20183;-74
2023/04/13 16:24:33;;;;;;;1.63;1.20;;;;;;;;;;6217316;23;20193;-74
2023/04/13 16:27:01;;;;;;;1.60;1.27;;;;;;;;;;6217193;23;20176;-74
2023/04/13 16:29:28;;;;;;;1.15;1.05;;;;;;;;;;6217109;23;20173;-74
2023/04/13 16:31:55;;;;;;;1.00;1.00;;;;;;;;;;6217161;23;20173;-73
2023/04/13 16:34:22;;;;;;;1.55;1.45;;;;;;;;;;6216893;23;20175;-75
2023/04/13 16:36:51;;;;;;;1.23;1.13;;;;;;;;;;6216838;23;20200;-76
2023/04/13 16:39:18;;;;;;;1.17;1.08;;;;;;;;;;6217048;23;20255;-75
2023/04/13 16:41:46;;;;;;;0.77;0.77;;;;;;;;;;6219828;23;20260;-75
2023/04/13 16:44:13;;;;;;;0.90;0.90;;;;;;;;;;6221737;23;20204;-75
2023/04/13 16:46:41;;;;;;;0.90;0.90;;;;;;;;;;6221327;23;20176;-75
2023/04/13 16:49:09;;;;;;;1.58;0.90;;;;;;;;;;6221212;23;20240;-75
2023/04/13 16:51:36;;;;;;;1.20;0.88;;;;;;;;;;6220792;23;20203;-75
2023/04/13 16:54:06;;;;;;;1.23;1.10;;;;;;;;;;6220043;23;20177;-74
2023/04/13 16:56:33;;;;;;;2.08;1.20;;;;;;;;;;6218391;23;20200;-74
2023/04/13 16:59:00;;;;;;;0.75;0.75;;;;;;;;;;6219676;23;20227;-74
2023/04/13 17:01:29;;;;;;;0.73;0.73;;;;;;;;;;6220616;23;20172;-74
2023/04/13 17:03:57;;;;;;;0.60;0.60;;;;;;;;;;6220035;23;20227;-73
2023/04/13 17:06:25;;;;;;;0.55;0.55;;;;;;;;;;6221789;23;20200;-74
2023/04/13 17:08:52;;;;;;;2.10;0.50;;;;;;;;;;6221049;23;20169;-74
2023/04/13 17:11:21;;;;;;;0.70;0.70;;;;;;;;;;6221595;23;20176;-74
2023/04/13 17:13:50;;;;;;;0.70;0.70;;;;;;;;;;6221767;23;20173;-75
2023/04/13 17:16:17;;;;;;;0.80;0.80;;;;;;;;;;6222034;23;20197;-74
2023/04/13 17:18:45;;;;;;;0.50;0.50;;;;;;;;;;6221235;23;20192;-74
2023/04/13 17:21:12;;;;;;;0.63;0.63;;;;;;;;;;6221120;23;20177;-74
2023/04/13 17:23:42;;;;;;;0.68;0.68;;;;;;;;;;6221629;23;20611;-75
2023/04/13 17:26:11;;;;;;;0.90;0.90;;;;;;;;;;6221335;23;20232;-75
2023/04/13 17:28:43;;;;;;;1.17;1.13;;;;;;;;;;6221020;23;20177;-77
2023/04/13 17:31:10;;;;;;;1.05;1.05;;;;;;;;;;6220632;23;20160;-73
2023/04/13 17:33:38;;;;;;;0.80;0.80;;;;;;;;;;6222057;23;20512;-74
2023/04/13 17:36:05;;;;;;;0.77;0.77;;;;;;;;;;6219501;23;20196;-74
2023/04/13 17:38:32;;;;;;;0.70;0.70;;;;;;;;;;6216150;23;20183;-74
2023/04/13 17:40:59;;;;;;;0.70;0.70;;;;;;;;;;6216764;23;20184;-75
2023/04/13 17:43:26;;;;;;;0.80;0.80;;;;;;;;;;6216209;23;20177;-74
2023/04/13 17:45:55;;;;;;;0.70;0.70;;;;;;;;;;6216095;23;20205;-75
2023/04/13 17:48:22;;;;;;;1.67;1.00;;;;;;;;;;6215958;23;20243;-75
2023/04/13 17:50:49;;;;;;;1.00;1.00;;;;;;;;;;6216473;23;20173;-75
2023/04/13 17:53:16;;;;;;;1.38;1.27;;;;;;;;;;6216375;23;20177;-74
2023/04/13 17:55:43;;;;;;;1.65;1.55;;;;;;;;;;6215731;23;20537;-74
2023/04/13 17:58:11;;;;;;;2.03;1.17;;;;;;;;;;6216599;23;20177;-74
2023/04/13 18:00:38;;;;;;;1.10;1.10;;;;;;;;;;6216263;23;20173;-73
2023/04/13 18:03:07;;;;;;;1.20;1.10;;;;;;;;;;6216106;23;20177;-74
2023/04/13 18:05:35;;;;;;;1.45;1.33;;;;;;;;;;6216039;23;20204;-74
2023/04/13 18:08:02;;;;;;;0.95;0.93;;;;;;;;;;6216204;23;20557;-72
2023/04/13 18:10:29;;;;;;;0.88;0.88;;;;;;;;;;6215833;23;20638;-73
2023/04/13 18:12:59;;;;;;;1.00;1.00;;;;;;;;;;6215828;23;20570;-73
2023/04/13 18:15:26;;;;;;;1.42;0.90;;;;;;;;;;6216649;23;20247;-74
2023/04/13 18:17:54;;;;;;;1.35;1.13;;;;;;;;;;6218276;23;20179;-75
2023/04/13 18:20:22;;;;;;;1.90;1.17;;;;;;;;;;6218189;23;20172;-74
2023/04/13 18:22:49;;;;;;;0.90;0.90;;;;;;;;;;6217828;23;20522;-75
2023/04/13 18:25:16;;;;;;;1.50;1.13;;;;;;;;;;6217524;23;20676;-74
2023/04/13 18:27:43;;;;;;;1.20;1.10;;;;;;;;;;6217961;23;20177;-74
2023/04/13 18:30:11;;;;;;;1.27;1.17;;;;;;;;;;6217845;23;20172;-74
2023/04/13 18:32:38;;;;;;;1.13;1.00;;;;;;;;;;6217926;23;20180;-74
2023/04/13 18:35:06;;;;;;;1.33;1.23;;;;;;;;;;6217925;23;20254;-74
2023/04/13 18:37:34;;;;;;;0.82;0.82;;;;;;;;;;6217906;23;20185;-74
2023/04/13 18:40:04;;;;;;;0.77;0.77;;;;;;;;;;6218025;23;20222;-73
2023/04/13 18:42:32;;;;;;;0.73;0.73;;;;;;;;;;6218015;23;20172;-74
2023/04/13 18:44:59;;;;;;;1.10;1.10;;;;;;;;;;6217609;23;20218;-74
2023/04/13 18:47:26;;;;;;;0.60;0.60;;;;;;;;;;6217567;23;20692;-74
2023/04/13 18:49:53;;;;;;;0.80;0.80;;;;;;;;;;6217935;23;20181;-74
2023/04/13 18:52:24;;;;;;;0.80;0.80;;;;;;;;;;6218137;23;20177;-74
2023/04/13 18:54:52;;;;;;;0.88;0.88;;;;;;;;;;6218680;23;20192;-73
2023/04/13 18:57:20;;;;;;;0.80;0.80;;;;;;;;;;6217974;23;20173;-73
2023/04/13 18:59:47;;;;;;;0.70;0.70;;;;;;;;;;6217703;23;20176;-74
2023/04/13 19:02:14;;;;;;;0.70;0.70;;;;;;;;;;6217917;23;20177;-73
2023/04/13 19:04:41;;;;;;;0.70;0.70;;;;;;;;;;6217796;23;20196;-76
2023/04/13 19:07:08;;;;;;;0.80;0.80;;;;;;;;;;6217926;23;20161;-77
2023/04/13 19:09:35;;;;;;;0.80;0.80;;;;;;;;;;6217694;23;20180;-74
2023/04/13 19:12:04;;;;;;;0.80;0.80;;;;;;;;;;6217662;23;20173;-74
2023/04/13 19:14:31;;;;;;;1.10;1.10;;;;;;;;;;6217726;23;20177;-75
2023/04/13 19:16:58;;;;;;;1.10;1.10;;;;;;;;;;6217671;23;20192;-74
2023/04/13 19:19:26;;;;;;;1.15;1.15;;;;;;;;;;6217869;23;20549;-77
2023/04/13 19:21:53;;;;;;;1.33;1.23;;;;;;;;;;6217624;23;20173;-75
2023/04/13 19:24:20;;;;;;;1.13;1.13;;;;;;;;;;6216996;23;20635;-75
2023/04/13 19:26:47;;;;;;;1.45;1.40;;;;;;;;;;6216877;23;20188;-75
2023/04/13 19:29:16;;;;;;;1.55;1.55;;;;;;;;;;6217173;23;20188;-75
2023/04/13 19:31:45;;;;;;;1.50;1.50;;;;;;;;;;6217062;23;20510;-75
2023/04/13 19:34:12;;;;;;;2.70;1.50;;;;;;;;;;6217127;23;20251;-75